sensor_id;sensor_type;location;lat;lon;timestamp;temperature;humidity
19214;DHT22;9741;51.020;5.304;2023-04-01T00:01:18;11.20;69.40
19214;DHT22;9741;51.020;5.304;2023-04-01T00:03:46;11.20;69.50
19214;DHT22;9741;51.020;5.304;2023-04-01T00:06:16;11.20;69.50
19214;DHT22;9741;51.020;5.304;2023-04-01T00:08:44;11.30;69.60
19214;DHT22;9741;51.020;5.304;2023-04-01T00:11:11;11.20;69.50
19214;DHT22;9741;51.020;5.304;2023-04-01T00:13:40;11.20;69.50
19214;DHT22;9741;51.020;5.304;2023-04-01T00:16:07;11.20;69.50
19214;DHT22;9741;51.020;5.304;2023-04-01T00:18:35;11.30;69.60
19214;DHT22;9741;51.020;5.304;2023-04-01T00:21:02;11.20;69.50
19214;DHT22;9741;51.020;5.304;2023-04-01T00:23:30;11.20;69.60
19214;DHT22;9741;51.020;5.304;2023-04-01T00:25:59;11.20;69.60
19214;DHT22;9741;51.020;5.304;2023-04-01T00:28:26;11.20;69.60
19214;DHT22;9741;51.020;5.304;2023-04-01T00:30:55;11.20;69.60
19214;DHT22;9741;51.020;5.304;2023-04-01T00:33:22;11.20;69.70
19214;DHT22;9741;51.020;5.304;2023-04-01T00:35:49;11.20;69.70
19214;DHT22;9741;51.020;5.304;2023-04-01T00:38:17;11.20;69.70
19214;DHT22;9741;51.020;5.304;2023-04-01T00:40:45;11.10;69.60
19214;DHT22;9741;51.020;5.304;2023-04-01T00:43:15;11.10;69.70
19214;DHT22;9741;51.020;5.304;2023-04-01T00:45:45;11.10;69.70
19214;DHT22;9741;51.020;5.304;2023-04-01T00:48:16;11.10;69.70
19214;DHT22;9741;51.020;5.304;2023-04-01T00:50:48;11.10;69.80
19214;DHT22;9741;51.020;5.304;2023-04-01T00:53:18;11.10;69.80
19214;DHT22;9741;51.020;5.304;2023-04-01T00:55:50;11.20;69.90
19214;DHT22;9741;51.020;5.304;2023-04-01T00:58:21;11.20;69.90
19214;DHT22;9741;51.020;5.304;2023-04-01T01:00:52;11.20;70.40
19214;DHT22;9741;51.020;5.304;2023-04-01T01:03:22;11.20;69.90
19214;DHT22;9741;51.020;5.304;2023-04-01T01:06:08;11.20;69.90
19214;DHT22;9741;51.020;5.304;2023-04-01T01:11:41;11.10;70.40
19214;DHT22;9741;51.020;5.304;2023-04-01T01:14:24;11.10;69.80
19214;DHT22;9741;51.020;5.304;2023-04-01T01:16:55;11.20;70.00
19214;DHT22;9741;51.020;5.304;2023-04-01T01:19:55;11.10;69.90
19214;DHT22;9741;51.020;5.304;2023-04-01T01:22:42;11.20;70.00
19214;DHT22;9741;51.020;5.304;2023-04-01T01:25:32;11.10;69.90
19214;DHT22;9741;51.020;5.304;2023-04-01T01:28:26;11.10;70.00
19214;DHT22;9741;51.020;5.304;2023-04-01T01:31:06;11.10;70.00
19214;DHT22;9741;51.020;5.304;2023-04-01T01:33:43;11.10;70.10
19214;DHT22;9741;51.020;5.304;2023-04-01T01:36:16;11.10;70.10
19214;DHT22;9741;51.020;5.304;2023-04-01T01:38:48;11.10;70.20
19214;DHT22;9741;51.020;5.304;2023-04-01T01:41:16;11.10;70.20
19214;DHT22;9741;51.020;5.304;2023-04-01T01:43:47;11.10;70.70
19214;DHT22;9741;51.020;5.304;2023-04-01T01:46:19;11.10;70.20
19214;DHT22;9741;51.020;5.304;2023-04-01T01:48:50;11.10;70.20
19214;DHT22;9741;51.020;5.304;2023-04-01T01:51:21;11.10;70.30
19214;DHT22;9741;51.020;5.304;2023-04-01T01:53:49;11.10;70.30
19214;DHT22;9741;51.020;5.304;2023-04-01T01:56:22;11.10;70.30
19214;DHT22;9741;51.020;5.304;2023-04-01T01:58:52;11.10;70.30
19214;DHT22;9741;51.020;5.304;2023-04-01T02:01:24;11.10;70.30
19214;DHT22;9741;51.020;5.304;2023-04-01T02:03:53;11.20;70.40
19214;DHT22;9741;51.020;5.304;2023-04-01T02:06:26;11.10;70.20
19214;DHT22;9741;51.020;5.304;2023-04-01T02:08:56;11.20;70.40
19214;DHT22;9741;51.020;5.304;2023-04-01T02:11:27;11.20;70.40
19214;DHT22;9741;51.020;5.304;2023-04-01T02:13:57;11.20;70.40
19214;DHT22;9741;51.020;5.304;2023-04-01T02:16:30;11.20;70.40
19214;DHT22;9741;51.020;5.304;2023-04-01T02:19:01;11.20;70.40
19214;DHT22;9741;51.020;5.304;2023-04-01T02:21:35;11.20;70.50
19214;DHT22;9741;51.020;5.304;2023-04-01T02:24:07;11.20;70.40
19214;DHT22;9741;51.020;5.304;2023-04-01T02:26:36;11.20;70.40
19214;DHT22;9741;51.020;5.304;2023-04-01T02:29:05;11.20;70.40
19214;DHT22;9741;51.020;5.304;2023-04-01T02:31:37;11.20;70.50
19214;DHT22;9741;51.020;5.304;2023-04-01T02:34:04;11.20;70.50
19214;DHT22;9741;51.020;5.304;2023-04-01T02:36:34;11.20;70.50
19214;DHT22;9741;51.020;5.304;2023-04-01T02:39:01;11.20;70.50
19214;DHT22;9741;51.020;5.304;2023-04-01T02:41:29;11.20;70.50
19214;DHT22;9741;51.020;5.304;2023-04-01T02:43:57;11.20;70.50
19214;DHT22;9741;51.020;5.304;2023-04-01T02:46:25;11.20;70.50
19214;DHT22;9741;51.020;5.304;2023-04-01T02:48:52;11.20;70.50
19214;DHT22;9741;51.020;5.304;2023-04-01T02:51:19;11.20;70.50
19214;DHT22;9741;51.020;5.304;2023-04-01T02:53:47;11.20;70.50
19214;DHT22;9741;51.020;5.304;2023-04-01T02:56:15;11.20;70.50
19214;DHT22;9741;51.020;5.304;2023-04-01T02:58:42;11.20;70.50
19214;DHT22;9741;51.020;5.304;2023-04-01T03:01:09;11.20;70.50
19214;DHT22;9741;51.020;5.304;2023-04-01T03:03:36;11.20;70.50
19214;DHT22;9741;51.020;5.304;2023-04-01T03:06:05;11.20;70.50
19214;DHT22;9741;51.020;5.304;2023-04-01T03:08:32;11.20;70.50
19214;DHT22;9741;51.020;5.304;2023-04-01T03:11:01;11.20;70.50
19214;DHT22;9741;51.020;5.304;2023-04-01T03:13:28;11.20;70.60
19214;DHT22;9741;51.020;5.304;2023-04-01T03:15:55;11.20;70.60
19214;DHT22;9741;51.020;5.304;2023-04-01T03:18:22;11.20;70.60
19214;DHT22;9741;51.020;5.304;2023-04-01T03:20:50;11.20;70.60
19214;DHT22;9741;51.020;5.304;2023-04-01T03:23:17;11.20;70.60
19214;DHT22;9741;51.020;5.304;2023-04-01T03:25:45;11.20;70.60
19214;DHT22;9741;51.020;5.304;2023-04-01T03:28:14;11.20;70.60
19214;DHT22;9741;51.020;5.304;2023-04-01T03:30:41;11.20;70.60
19214;DHT22;9741;51.020;5.304;2023-04-01T03:33:08;11.20;70.60
19214;DHT22;9741;51.020;5.304;2023-04-01T03:35:35;11.20;70.50
19214;DHT22;9741;51.020;5.304;2023-04-01T03:38:04;11.20;70.50
19214;DHT22;9741;51.020;5.304;2023-04-01T03:40:32;11.10;70.50
19214;DHT22;9741;51.020;5.304;2023-04-01T03:43:02;11.10;70.50
19214;DHT22;9741;51.020;5.304;2023-04-01T03:45:35;11.10;70.50
19214;DHT22;9741;51.020;5.304;2023-04-01T03:48:02;11.10;70.60
19214;DHT22;9741;51.020;5.304;2023-04-01T03:50:29;11.10;70.60
19214;DHT22;9741;51.020;5.304;2023-04-01T03:52:56;11.10;70.60
19214;DHT22;9741;51.020;5.304;2023-04-01T03:55:23;11.10;71.10
19214;DHT22;9741;51.020;5.304;2023-04-01T03:57:54;11.10;70.60
19214;DHT22;9741;51.020;5.304;2023-04-01T04:00:21;11.10;70.60
19214;DHT22;9741;51.020;5.304;2023-04-01T04:02:50;11.10;70.60
19214;DHT22;9741;51.020;5.304;2023-04-01T04:05:17;11.10;70.60
19214;DHT22;9741;51.020;5.304;2023-04-01T04:07:45;11.10;70.60
19214;DHT22;9741;51.020;5.304;2023-04-01T04:10:12;11.00;70.60
19214;DHT22;9741;51.020;5.304;2023-04-01T04:12:40;11.00;70.60
19214;DHT22;9741;51.020;5.304;2023-04-01T04:15:08;11.00;70.60
19214;DHT22;9741;51.020;5.304;2023-04-01T04:17:35;11.00;70.60
19214;DHT22;9741;51.020;5.304;2023-04-01T04:20:05;11.10;70.70
19214;DHT22;9741;51.020;5.304;2023-04-01T04:22:33;11.10;70.80
19214;DHT22;9741;51.020;5.304;2023-04-01T04:25:00;11.10;70.80
19214;DHT22;9741;51.020;5.304;2023-04-01T04:27:28;11.10;70.70
19214;DHT22;9741;51.020;5.304;2023-04-01T04:29:55;11.10;70.70
19214;DHT22;9741;51.020;5.304;2023-04-01T04:32:22;11.00;70.60
19214;DHT22;9741;51.020;5.304;2023-04-01T04:34:50;11.00;70.60
19214;DHT22;9741;51.020;5.304;2023-04-01T04:37:18;11.00;70.60
19214;DHT22;9741;51.020;5.304;2023-04-01T04:39:45;11.00;70.60
19214;DHT22;9741;51.020;5.304;2023-04-01T04:42:12;11.00;70.60
19214;DHT22;9741;51.020;5.304;2023-04-01T04:44:39;11.00;70.70
19214;DHT22;9741;51.020;5.304;2023-04-01T04:47:06;11.00;70.70
19214;DHT22;9741;51.020;5.304;2023-04-01T04:49:34;11.00;70.70
19214;DHT22;9741;51.020;5.304;2023-04-01T04:52:01;11.00;70.70
19214;DHT22;9741;51.020;5.304;2023-04-01T04:54:29;11.00;70.70
19214;DHT22;9741;51.020;5.304;2023-04-01T04:56:56;11.00;70.80
19214;DHT22;9741;51.020;5.304;2023-04-01T04:59:23;11.00;70.80
19214;DHT22;9741;51.020;5.304;2023-04-01T05:01:51;11.00;70.80
19214;DHT22;9741;51.020;5.304;2023-04-01T05:04:18;11.00;70.80
19214;DHT22;9741;51.020;5.304;2023-04-01T05:06:45;11.00;70.90
19214;DHT22;9741;51.020;5.304;2023-04-01T05:09:12;11.00;70.90
19214;DHT22;9741;51.020;5.304;2023-04-01T05:11:40;11.00;70.80
19214;DHT22;9741;51.020;5.304;2023-04-01T05:14:12;11.00;70.90
19214;DHT22;9741;51.020;5.304;2023-04-01T05:16:39;11.00;70.90
19214;DHT22;9741;51.020;5.304;2023-04-01T05:19:06;11.00;70.90
19214;DHT22;9741;51.020;5.304;2023-04-01T05:21:33;11.00;70.90
19214;DHT22;9741;51.020;5.304;2023-04-01T05:24:00;11.00;70.90
19214;DHT22;9741;51.020;5.304;2023-04-01T05:26:29;11.00;70.90
19214;DHT22;9741;51.020;5.304;2023-04-01T05:28:59;11.00;71.00
19214;DHT22;9741;51.020;5.304;2023-04-01T05:31:26;11.00;71.00
19214;DHT22;9741;51.020;5.304;2023-04-01T05:33:54;11.00;71.00
19214;DHT22;9741;51.020;5.304;2023-04-01T05:36:21;11.00;71.00
19214;DHT22;9741;51.020;5.304;2023-04-01T05:38:49;11.00;71.00
19214;DHT22;9741;51.020;5.304;2023-04-01T05:41:16;11.00;71.00
19214;DHT22;9741;51.020;5.304;2023-04-01T05:43:43;11.00;71.00
19214;DHT22;9741;51.020;5.304;2023-04-01T05:46:11;11.00;71.00
19214;DHT22;9741;51.020;5.304;2023-04-01T05:48:39;11.00;71.00
19214;DHT22;9741;51.020;5.304;2023-04-01T05:51:06;11.00;71.10
19214;DHT22;9741;51.020;5.304;2023-04-01T05:53:36;11.00;71.10
19214;DHT22;9741;51.020;5.304;2023-04-01T05:56:03;11.00;71.00
19214;DHT22;9741;51.020;5.304;2023-04-01T05:58:31;11.10;71.10
19214;DHT22;9741;51.020;5.304;2023-04-01T06:01:02;11.10;71.10
19214;DHT22;9741;51.020;5.304;2023-04-01T06:03:30;11.10;71.10
19214;DHT22;9741;51.020;5.304;2023-04-01T06:05:58;11.10;71.10
19214;DHT22;9741;51.020;5.304;2023-04-01T06:08:27;11.10;71.10
19214;DHT22;9741;51.020;5.304;2023-04-01T06:11:03;11.10;71.10
19214;DHT22;9741;51.020;5.304;2023-04-01T06:13:42;11.10;71.00
19214;DHT22;9741;51.020;5.304;2023-04-01T06:16:19;11.10;71.00
19214;DHT22;9741;51.020;5.304;2023-04-01T06:19:03;11.10;71.10
19214;DHT22;9741;51.020;5.304;2023-04-01T06:24:50;11.10;71.10
19214;DHT22;9741;51.020;5.304;2023-04-01T06:27:29;11.10;71.10
19214;DHT22;9741;51.020;5.304;2023-04-01T06:30:10;11.10;71.70
19214;DHT22;9741;51.020;5.304;2023-04-01T06:33:07;11.10;71.10
19214;DHT22;9741;51.020;5.304;2023-04-01T06:36:16;11.10;71.20
19214;DHT22;9741;51.020;5.304;2023-04-01T06:38:56;11.10;71.20
19214;DHT22;9741;51.020;5.304;2023-04-01T06:41:59;11.10;71.20
19214;DHT22;9741;51.020;5.304;2023-04-01T06:44:34;11.10;71.20
19214;DHT22;9741;51.020;5.304;2023-04-01T06:47:12;11.10;71.20
19214;DHT22;9741;51.020;5.304;2023-04-01T06:49:52;11.10;71.30
19214;DHT22;9741;51.020;5.304;2023-04-01T06:52:27;11.20;71.40
19214;DHT22;9741;51.020;5.304;2023-04-01T06:55:00;11.20;71.40
19214;DHT22;9741;51.020;5.304;2023-04-01T06:57:32;11.20;71.40
19214;DHT22;9741;51.020;5.304;2023-04-01T07:00:05;11.20;71.40
19214;DHT22;9741;51.020;5.304;2023-04-01T07:02:43;11.20;71.30
19214;DHT22;9741;51.020;5.304;2023-04-01T07:05:14;11.20;71.30
19214;DHT22;9741;51.020;5.304;2023-04-01T07:07:47;11.20;71.30
19214;DHT22;9741;51.020;5.304;2023-04-01T07:10:32;11.20;71.30
19214;DHT22;9741;51.020;5.304;2023-04-01T07:13:05;11.30;71.40
19214;DHT22;9741;51.020;5.304;2023-04-01T07:15:37;11.30;71.40
19214;DHT22;9741;51.020;5.304;2023-04-01T07:18:13;11.30;71.30
19214;DHT22;9741;51.020;5.304;2023-04-01T07:20:41;11.30;71.30
19214;DHT22;9741;51.020;5.304;2023-04-01T07:23:20;11.30;71.30
19214;DHT22;9741;51.020;5.304;2023-04-01T07:25:52;11.20;71.20
19214;DHT22;9741;51.020;5.304;2023-04-01T07:28:20;11.20;71.30
19214;DHT22;9741;51.020;5.304;2023-04-01T07:30:58;11.30;71.50
19214;DHT22;9741;51.020;5.304;2023-04-01T07:33:33;11.30;71.50
19214;DHT22;9741;51.020;5.304;2023-04-01T07:36:05;11.40;71.60
19214;DHT22;9741;51.020;5.304;2023-04-01T07:38:45;11.50;71.70
19214;DHT22;9741;51.020;5.304;2023-04-01T07:41:23;11.50;71.50
19214;DHT22;9741;51.020;5.304;2023-04-01T07:44:03;11.60;71.50
19214;DHT22;9741;51.020;5.304;2023-04-01T07:46:50;11.60;71.40
19214;DHT22;9741;51.020;5.304;2023-04-01T07:49:27;11.70;71.50
19214;DHT22;9741;51.020;5.304;2023-04-01T07:51:59;11.70;71.50
19214;DHT22;9741;51.020;5.304;2023-04-01T07:54:33;11.80;71.50
19214;DHT22;9741;51.020;5.304;2023-04-01T07:57:07;11.80;71.40
19214;DHT22;9741;51.020;5.304;2023-04-01T07:59:45;11.80;71.30
19214;DHT22;9741;51.020;5.304;2023-04-01T08:02:27;11.80;71.30
19214;DHT22;9741;51.020;5.304;2023-04-01T08:05:06;11.90;71.90
19214;DHT22;9741;51.020;5.304;2023-04-01T08:07:43;11.90;71.30
19214;DHT22;9741;51.020;5.304;2023-04-01T08:10:18;11.90;71.40
19214;DHT22;9741;51.020;5.304;2023-04-01T08:12:55;12.00;71.30
19214;DHT22;9741;51.020;5.304;2023-04-01T08:15:27;12.00;71.20
19214;DHT22;9741;51.020;5.304;2023-04-01T08:18:05;12.00;71.20
19214;DHT22;9741;51.020;5.304;2023-04-01T08:20:38;12.00;71.10
19214;DHT22;9741;51.020;5.304;2023-04-01T08:23:12;12.00;71.00
19214;DHT22;9741;51.020;5.304;2023-04-01T08:25:47;12.00;71.00
19214;DHT22;9741;51.020;5.304;2023-04-01T08:28:19;12.00;71.00
19214;DHT22;9741;51.020;5.304;2023-04-01T08:30:52;12.00;70.90
19214;DHT22;9741;51.020;5.304;2023-04-01T08:33:22;12.00;70.90
19214;DHT22;9741;51.020;5.304;2023-04-01T08:35:56;12.00;70.90
19214;DHT22;9741;51.020;5.304;2023-04-01T08:38:30;12.00;70.80
19214;DHT22;9741;51.020;5.304;2023-04-01T08:41:05;12.00;71.10
19214;DHT22;9741;51.020;5.304;2023-04-01T08:47:02;12.10;70.90
19214;DHT22;9741;51.020;5.304;2023-04-01T08:52:36;12.10;70.80
19214;DHT22;9741;51.020;5.304;2023-04-01T08:55:29;12.20;70.90
19214;DHT22;9741;51.020;5.304;2023-04-01T08:58:26;12.30;70.90
19214;DHT22;9741;51.020;5.304;2023-04-01T09:01:09;12.30;70.70
19214;DHT22;9741;51.020;5.304;2023-04-01T09:03:44;12.30;70.70
19214;DHT22;9741;51.020;5.304;2023-04-01T09:06:33;12.40;70.80
19214;DHT22;9741;51.020;5.304;2023-04-01T09:09:35;12.40;70.60
19214;DHT22;9741;51.020;5.304;2023-04-01T09:15:37;12.60;70.70
19214;DHT22;9741;51.020;5.304;2023-04-01T09:18:24;12.70;70.70
19214;DHT22;9741;51.020;5.304;2023-04-01T09:21:09;12.80;70.60
19214;DHT22;9741;51.020;5.304;2023-04-01T09:24:17;12.80;70.50
19214;DHT22;9741;51.020;5.304;2023-04-01T09:27:05;12.90;70.40
19214;DHT22;9741;51.020;5.304;2023-04-01T09:35:47;13.00;70.20
19214;DHT22;9741;51.020;5.304;2023-04-01T09:38:21;13.00;70.10
19214;DHT22;9741;51.020;5.304;2023-04-01T09:40:56;13.00;70.00
19214;DHT22;9741;51.020;5.304;2023-04-01T09:43:43;13.10;70.00
19214;DHT22;9741;51.020;5.304;2023-04-01T09:46:22;13.10;69.90
19214;DHT22;9741;51.020;5.304;2023-04-01T09:49:26;13.10;69.80
19214;DHT22;9741;51.020;5.304;2023-04-01T09:52:18;13.10;69.80
19214;DHT22;9741;51.020;5.304;2023-04-01T09:55:33;13.10;69.80
19214;DHT22;9741;51.020;5.304;2023-04-01T10:04:54;13.10;69.40
19214;DHT22;9741;51.020;5.304;2023-04-01T10:10:42;13.10;69.40
19214;DHT22;9741;51.020;5.304;2023-04-01T10:22:57;13.10;69.50
19214;DHT22;9741;51.020;5.304;2023-04-01T10:35:03;13.10;69.40
19214;DHT22;9741;51.020;5.304;2023-04-01T10:37:48;13.10;69.30
19214;DHT22;9741;51.020;5.304;2023-04-01T10:40:37;13.00;69.20
19214;DHT22;9741;51.020;5.304;2023-04-01T10:43:46;13.00;69.30
19214;DHT22;9741;51.020;5.304;2023-04-01T10:49:48;13.10;69.40
19214;DHT22;9741;51.020;5.304;2023-04-01T10:53:10;13.10;69.40
19214;DHT22;9741;51.020;5.304;2023-04-01T10:59:18;13.70;70.00
19214;DHT22;9741;51.020;5.304;2023-04-01T11:02:20;14.00;69.70
19214;DHT22;9741;51.020;5.304;2023-04-01T11:05:31;14.20;69.30
19214;DHT22;9741;51.020;5.304;2023-04-01T11:11:47;14.40;68.50
19214;DHT22;9741;51.020;5.304;2023-04-01T11:17:46;14.30;68.50
19214;DHT22;9741;51.020;5.304;2023-04-01T11:20:55;14.30;68.50
19214;DHT22;9741;51.020;5.304;2023-04-01T11:23:42;14.40;68.70
19214;DHT22;9741;51.020;5.304;2023-04-01T11:26:22;14.50;68.70
19214;DHT22;9741;51.020;5.304;2023-04-01T11:29:12;14.70;68.60
19214;DHT22;9741;51.020;5.304;2023-04-01T11:31:50;14.90;68.60
19214;DHT22;9741;51.020;5.304;2023-04-01T11:34:37;14.90;68.30
19214;DHT22;9741;51.020;5.304;2023-04-01T11:37:14;15.10;68.10
19214;DHT22;9741;51.020;5.304;2023-04-01T11:39:54;15.10;67.70
19214;DHT22;9741;51.020;5.304;2023-04-01T11:42:30;15.20;67.80
19214;DHT22;9741;51.020;5.304;2023-04-01T11:45:12;15.30;67.70
19214;DHT22;9741;51.020;5.304;2023-04-01T11:47:58;15.40;67.50
19214;DHT22;9741;51.020;5.304;2023-04-01T11:50:38;15.40;67.10
19214;DHT22;9741;51.020;5.304;2023-04-01T11:53:23;15.30;66.80
19214;DHT22;9741;51.020;5.304;2023-04-01T11:55:59;15.00;66.60
19214;DHT22;9741;51.020;5.304;2023-04-01T11:58:52;14.80;66.70
19214;DHT22;9741;51.020;5.304;2023-04-01T12:01:33;14.60;66.70
19214;DHT22;9741;51.020;5.304;2023-04-01T12:04:31;14.40;66.90
19214;DHT22;9741;51.020;5.304;2023-04-01T12:07:08;14.20;67.00
19214;DHT22;9741;51.020;5.304;2023-04-01T12:09:46;14.10;67.10
19214;DHT22;9741;51.020;5.304;2023-04-01T12:12:23;14.00;67.20
19214;DHT22;9741;51.020;5.304;2023-04-01T12:15:01;14.00;67.30
19214;DHT22;9741;51.020;5.304;2023-04-01T12:17:37;14.00;67.30
19214;DHT22;9741;51.020;5.304;2023-04-01T12:20:38;14.00;67.90
19214;DHT22;9741;51.020;5.304;2023-04-01T12:23:21;13.90;67.30
19214;DHT22;9741;51.020;5.304;2023-04-01T12:26:15;13.90;67.30
19214;DHT22;9741;51.020;5.304;2023-04-01T12:28:54;14.00;67.40
19214;DHT22;9741;51.020;5.304;2023-04-01T12:31:34;14.00;67.50
19214;DHT22;9741;51.020;5.304;2023-04-01T12:34:33;14.10;67.50
19214;DHT22;9741;51.020;5.304;2023-04-01T12:37:11;14.10;67.50
19214;DHT22;9741;51.020;5.304;2023-04-01T12:40:09;14.20;67.40
19214;DHT22;9741;51.020;5.304;2023-04-01T12:42:51;14.20;67.20
19214;DHT22;9741;51.020;5.304;2023-04-01T12:45:30;14.10;67.00
19214;DHT22;9741;51.020;5.304;2023-04-01T12:51:34;13.90;66.90
19214;DHT22;9741;51.020;5.304;2023-04-01T12:54:40;13.70;66.90
19214;DHT22;9741;51.020;5.304;2023-04-01T12:57:24;13.70;67.10
19214;DHT22;9741;51.020;5.304;2023-04-01T13:00:08;13.60;67.30
19214;DHT22;9741;51.020;5.304;2023-04-01T13:02:51;13.70;67.40
19214;DHT22;9741;51.020;5.304;2023-04-01T13:05:36;13.70;67.40
19214;DHT22;9741;51.020;5.304;2023-04-01T13:08:24;13.80;67.50
19214;DHT22;9741;51.020;5.304;2023-04-01T13:11:08;13.90;67.50
19214;DHT22;9741;51.020;5.304;2023-04-01T13:13:57;14.00;67.50
19214;DHT22;9741;51.020;5.304;2023-04-01T13:16:29;14.00;67.40
19214;DHT22;9741;51.020;5.304;2023-04-01T13:19:02;14.10;67.40
19214;DHT22;9741;51.020;5.304;2023-04-01T13:21:41;14.10;67.20
19214;DHT22;9741;51.020;5.304;2023-04-01T13:24:22;14.20;67.20
19214;DHT22;9741;51.020;5.304;2023-04-01T13:26:56;14.10;67.20
19214;DHT22;9741;51.020;5.304;2023-04-01T13:29:28;14.20;67.30
19214;DHT22;9741;51.020;5.304;2023-04-01T13:32:10;14.30;67.20
19214;DHT22;9741;51.020;5.304;2023-04-01T13:34:52;14.40;67.10
19214;DHT22;9741;51.020;5.304;2023-04-01T13:37:31;14.40;67.10
19214;DHT22;9741;51.020;5.304;2023-04-01T13:40:19;14.60;67.00
19214;DHT22;9741;51.020;5.304;2023-04-01T13:42:53;14.50;66.70
19214;DHT22;9741;51.020;5.304;2023-04-01T13:45:23;14.40;66.60
19214;DHT22;9741;51.020;5.304;2023-04-01T13:48:08;14.40;66.70
19214;DHT22;9741;51.020;5.304;2023-04-01T13:51:03;14.40;66.70
19214;DHT22;9741;51.020;5.304;2023-04-01T13:53:46;14.40;66.80
19214;DHT22;9741;51.020;5.304;2023-04-01T13:56:29;14.50;66.80
19214;DHT22;9741;51.020;5.304;2023-04-01T13:59:32;14.60;66.80
19214;DHT22;9741;51.020;5.304;2023-04-01T14:02:27;14.60;66.80
19214;DHT22;9741;51.020;5.304;2023-04-01T14:05:09;14.70;66.80
19214;DHT22;9741;51.020;5.304;2023-04-01T14:07:51;14.90;66.80
19214;DHT22;9741;51.020;5.304;2023-04-01T14:10:28;14.90;66.70
19214;DHT22;9741;51.020;5.304;2023-04-01T14:13:09;14.90;66.40
19214;DHT22;9741;51.020;5.304;2023-04-01T14:15:51;14.90;66.20
19214;DHT22;9741;51.020;5.304;2023-04-01T14:18:37;14.70;66.10
19214;DHT22;9741;51.020;5.304;2023-04-01T14:21:26;14.60;66.00
19214;DHT22;9741;51.020;5.304;2023-04-01T14:24:36;14.40;66.00
19214;DHT22;9741;51.020;5.304;2023-04-01T14:27:44;14.20;66.10
19214;DHT22;9741;51.020;5.304;2023-04-01T14:30:26;14.00;66.30
19214;DHT22;9741;51.020;5.304;2023-04-01T14:33:04;14.00;66.50
19214;DHT22;9741;51.020;5.304;2023-04-01T14:35:38;13.90;66.60
19214;DHT22;9741;51.020;5.304;2023-04-01T14:38:39;13.80;66.50
19214;DHT22;9741;51.020;5.304;2023-04-01T14:41:24;13.70;66.50
19214;DHT22;9741;51.020;5.304;2023-04-01T14:47:18;13.60;66.80
19214;DHT22;9741;51.020;5.304;2023-04-01T14:49:52;13.70;66.90
19214;DHT22;9741;51.020;5.304;2023-04-01T14:52:24;13.60;66.90
19214;DHT22;9741;51.020;5.304;2023-04-01T14:54:52;13.70;67.00
19214;DHT22;9741;51.020;5.304;2023-04-01T14:57:24;13.70;66.90
19214;DHT22;9741;51.020;5.304;2023-04-01T14:59:54;13.70;67.00
19214;DHT22;9741;51.020;5.304;2023-04-01T15:02:38;13.60;66.80
19214;DHT22;9741;51.020;5.304;2023-04-01T15:05:27;13.60;66.90
19214;DHT22;9741;51.020;5.304;2023-04-01T15:08:15;13.50;66.90
19214;DHT22;9741;51.020;5.304;2023-04-01T15:14:05;13.40;67.00
19214;DHT22;9741;51.020;5.304;2023-04-01T15:16:41;13.40;67.20
19214;DHT22;9741;51.020;5.304;2023-04-01T15:19:23;13.40;67.20
19214;DHT22;9741;51.020;5.304;2023-04-01T15:22:15;13.30;67.00
19214;DHT22;9741;51.020;5.304;2023-04-01T15:24:48;13.30;67.20
19214;DHT22;9741;51.020;5.304;2023-04-01T15:27:27;13.30;67.30
19214;DHT22;9741;51.020;5.304;2023-04-01T15:30:02;13.30;67.30
19214;DHT22;9741;51.020;5.304;2023-04-01T15:32:42;13.30;67.40
19214;DHT22;9741;51.020;5.304;2023-04-01T15:35:23;13.40;67.50
19214;DHT22;9741;51.020;5.304;2023-04-01T15:37:55;13.50;67.60
19214;DHT22;9741;51.020;5.304;2023-04-01T15:40:29;13.60;67.50
19214;DHT22;9741;51.020;5.304;2023-04-01T15:43:15;13.70;68.00
19214;DHT22;9741;51.020;5.304;2023-04-01T15:45:56;13.80;67.50
19214;DHT22;9741;51.020;5.304;2023-04-01T15:48:34;13.90;67.40
19214;DHT22;9741;51.020;5.304;2023-04-01T15:51:11;13.90;67.20
19214;DHT22;9741;51.020;5.304;2023-04-01T15:54:16;13.90;67.10
19214;DHT22;9741;51.020;5.304;2023-04-01T15:56:57;13.80;67.00
19214;DHT22;9741;51.020;5.304;2023-04-01T15:59:51;13.80;67.00
19214;DHT22;9741;51.020;5.304;2023-04-01T16:02:25;13.80;67.00
19214;DHT22;9741;51.020;5.304;2023-04-01T16:04:59;13.80;67.00
19214;DHT22;9741;51.020;5.304;2023-04-01T16:07:51;13.70;66.80
19214;DHT22;9741;51.020;5.304;2023-04-01T16:10:31;13.70;66.80
19214;DHT22;9741;51.020;5.304;2023-04-01T16:13:16;13.60;66.80
19214;DHT22;9741;51.020;5.304;2023-04-01T16:15:54;13.50;66.70
19214;DHT22;9741;51.020;5.304;2023-04-01T16:18:51;13.50;66.90
19214;DHT22;9741;51.020;5.304;2023-04-01T16:21:35;13.50;66.90
19214;DHT22;9741;51.020;5.304;2023-04-01T16:24:12;13.40;66.60
19214;DHT22;9741;51.020;5.304;2023-04-01T16:26:47;13.30;66.60
19214;DHT22;9741;51.020;5.304;2023-04-01T16:29:25;13.20;66.60
19214;DHT22;9741;51.020;5.304;2023-04-01T16:31:59;13.00;66.70
19214;DHT22;9741;51.020;5.304;2023-04-01T16:34:34;13.00;66.90
19214;DHT22;9741;51.020;5.304;2023-04-01T16:37:09;12.90;66.90
19214;DHT22;9741;51.020;5.304;2023-04-01T16:39:54;12.90;66.90
19214;DHT22;9741;51.020;5.304;2023-04-01T16:42:40;12.90;67.00
19214;DHT22;9741;51.020;5.304;2023-04-01T16:45:19;12.80;67.00
19214;DHT22;9741;51.020;5.304;2023-04-01T16:47:52;12.80;67.00
19214;DHT22;9741;51.020;5.304;2023-04-01T16:50:23;12.70;67.00
19214;DHT22;9741;51.020;5.304;2023-04-01T16:52:59;12.60;67.00
19214;DHT22;9741;51.020;5.304;2023-04-01T16:55:44;12.50;67.00
19214;DHT22;9741;51.020;5.304;2023-04-01T16:58:20;12.50;67.10
19214;DHT22;9741;51.020;5.304;2023-04-01T17:00:52;12.50;67.20
19214;DHT22;9741;51.020;5.304;2023-04-01T17:03:26;12.50;67.30
19214;DHT22;9741;51.020;5.304;2023-04-01T17:06:07;12.40;67.30
19214;DHT22;9741;51.020;5.304;2023-04-01T17:08:55;12.40;67.20
19214;DHT22;9741;51.020;5.304;2023-04-01T17:11:33;12.30;67.20
19214;DHT22;9741;51.020;5.304;2023-04-01T17:14:12;12.20;67.20
19214;DHT22;9741;51.020;5.304;2023-04-01T17:19:46;12.10;67.40
19214;DHT22;9741;51.020;5.304;2023-04-01T17:22:25;12.10;68.00
19214;DHT22;9741;51.020;5.304;2023-04-01T17:25:10;12.00;67.50
19214;DHT22;9741;51.020;5.304;2023-04-01T17:27:50;12.00;67.60
19214;DHT22;9741;51.020;5.304;2023-04-01T17:30:28;11.90;67.60
19214;DHT22;9741;51.020;5.304;2023-04-01T17:36:01;11.90;67.80
19214;DHT22;9741;51.020;5.304;2023-04-01T17:38:48;11.80;67.70
19214;DHT22;9741;51.020;5.304;2023-04-01T17:41:29;11.80;67.80
19214;DHT22;9741;51.020;5.304;2023-04-01T17:44:10;11.80;68.00
19214;DHT22;9741;51.020;5.304;2023-04-01T17:46:54;11.70;67.90
19214;DHT22;9741;51.020;5.304;2023-04-01T17:49:28;11.70;68.00
19214;DHT22;9741;51.020;5.304;2023-04-01T17:52:02;11.60;67.90
19214;DHT22;9741;51.020;5.304;2023-04-01T17:54:39;11.60;68.00
19214;DHT22;9741;51.020;5.304;2023-04-01T17:57:30;11.60;68.10
19214;DHT22;9741;51.020;5.304;2023-04-01T18:00:03;11.60;68.20
19214;DHT22;9741;51.020;5.304;2023-04-01T18:02:45;11.60;68.20
19214;DHT22;9741;51.020;5.304;2023-04-01T18:05:41;11.60;68.30
19214;DHT22;9741;51.020;5.304;2023-04-01T18:08:17;11.50;68.20